KMTC/MTC METAR and TAF weather

Enter ICAO airport designator
Station Type Date Time Source
KMTC METAR 2021/09/23 15:56 UTC NOAA

KMTC 231556Z 19010KT 10SM BKN017 OVC024 13/13 A2965 RMK AO2A SLP046 T01320132


Station Type Date Time Source
KMTC Decoded METAR 2021/09/23 15:56 UTC NOAA

Selfridge Air National Guard Base, MI, United States (KMTC) 42-37N 082-50W
Sep 23, 2021 - 11:56 AM EDT / 2021.09.23 1556 UTC
Wind: from the S (190 degrees) at 12 MPH (10 KT):0
Visibility: 10 mile(s):0
Sky conditions: overcast
Temperature: 55.8 F (13.2 C)
Dew Point: 55.8 F (13.2 C)
Relative Humidity: 100%
Pressure (altimeter): 29.65 in. Hg (1004 hPa)
ob: KMTC 231556Z 19010KT 10SM BKN017 OVC024 13/13 A2965 RMK AO2A SLP046 T01320132
cycle: 16

Station Type Date Time Source
KMTC TAF 2021/09/23 17:24 UTC NOAA

TAF KMTC 231700Z 2317/2423 19012KT 9000 BR BKN015 OVC025 QNH2962INS
BECMG 2318/2320 19009KT 9999 NSW BKN009 OVC020 QNH2967INS
BECMG 2320/2322 19009KT 9999 BKN015 OVC020 QNH2967INS
BECMG 2322/2324 25009KT 9999 BKN015 OVC025 QNH2967INS
BECMG 2413/2414 26012G20KT 9999 FEW015 SCT026 QNH2992INS
BECMG 2421/2422 25006KT 9999 SKC QNH2994INS TX18/2417Z TN11/2405Z

Example: see airport list